الصفحة الرئيسية
METAR-TAF:

METAR-TAF

مطار :

كوبه, اليابان

دائرة عرض: 34-37-58N, خط طول: 135-13-26E, ارتفاع: 7 متر

مراقبة الطقس الحالي

تاريخ ووقت الإصدار 6ساعات و 53 دقيقة قبل الساعة 13:00UTC
ريح 8 عقدة من الغرب
درجة الحرارة 22°درجة مئوية
الرطوبة 94%
ضغط 1008 hPa
الرؤية 10 كم أو أكثر
غيوم قليلة على ارتفاع 400 قدم
غيوم مفككة على ارتفاع 600 قدم

METAR: RJBE 141300Z 26008KT 9999 FEW004 BKN006 22/21 Q1008

زمن: 04:53 (19:53 UTC)


TAF: مفقودة

أرصاد الطقس والتوقعات من أكثر من 4000 مطار (تقارير الطقس للمطار METAR والتنبؤ بالطقس بالمطارTAF).

المحطات المتاحة هي النقط الصفراء والحمراء على الخريطة.

حرك المؤشر فوق النقطة لمعرفة اسم المحطة.

ثم انقر لمعرفة أرصاد وتوقعات الطقس.

لتغيير الخارطة: اضغط على الأزرار الخضراء مع رمز الصليب الأسود للتكبير. على الزر الأخضر مع شرطة للتصغير، أو على الأسهم الخضراء للخرائط المجاورة.


METAR-TAF: